Time;durP1;ratioP1;P1;durP2;ratioP2;P2;SDS_P1;SDS_P2;PMS_P1;PMS_P2;Temp;Humidity;BMP_temperature;BMP_pressure;BME280_temperature;BME280_humidity;BME280_pressure;Samples;Min_cycle;Max_cycle;Signal;HPM_P1;HPM_P2
2022/10/22 00:01:08;;;;;;;10.00;9.00;;;14.40;99.90;;;;;;5084576;28;20665;-50
2022/10/22 00:03:35;;;;;;;11.67;10.47;;;14.40;99.90;;;;;;5082617;28;20767;-50
2022/10/22 00:06:02;;;;;;;10.77;9.77;;;14.40;99.90;;;;;;5084585;28;20192;-50
2022/10/22 00:08:30;;;;;;;10.43;9.27;;;14.40;99.90;;;;;;5092027;28;20205;-49
2022/10/22 00:10:58;;;;;;;16.47;12.90;;;14.40;99.90;;;;;;5084873;28;20201;-50
2022/10/22 00:13:25;;;;;;;14.63;11.70;;;14.30;99.90;;;;;;5092722;28;20277;-50
2022/10/22 00:15:52;;;;;;;12.60;11.30;;;14.40;99.90;;;;;;5092783;28;20216;-50
2022/10/22 00:18:19;;;;;;;13.20;10.20;;;14.40;99.90;;;;;;5085172;28;20250;-50
2022/10/22 00:20:46;;;;;;;14.47;10.00;;;14.30;99.90;;;;;;5082035;28;20192;-49
2022/10/22 00:23:13;;;;;;;11.93;9.30;;;14.30;99.90;;;;;;5078945;28;20228;-50
2022/10/22 00:25:41;;;;;;;10.83;9.73;;;14.30;99.90;;;;;;5084643;28;20188;-49
2022/10/22 00:28:10;;;;;;;11.47;10.27;;;14.30;99.90;;;;;;5092524;28;20204;-50
2022/10/22 00:30:37;;;;;;;14.77;11.80;;;14.30;99.90;;;;;;5092576;28;20576;-49
2022/10/22 00:33:04;;;;;;;12.90;10.97;;;14.30;99.90;;;;;;5085413;28;20756;-49
2022/10/22 00:35:31;;;;;;;4.00;1.70;;;14.30;99.90;;;;;;5081186;28;20759;-49
2022/10/22 00:37:58;;;;;;;1.40;0.30;;;14.40;99.90;;;;;;5092082;28;20200;-48
2022/10/22 00:40:26;;;;;;;0.30;0.30;;;14.10;99.90;;;;;;5092576;28;20205;-49
2022/10/22 00:42:54;;;;;;;2.53;0.20;;;13.80;99.90;;;;;;5091469;28;20718;-49
2022/10/22 00:47:51;;;;;;;0.33;0.10;;;13.40;99.90;;;;;;5108553;22;20234;-52
2022/10/22 00:50:23;;;;;;;0.10;0.10;;;13.30;99.90;;;;;;5080491;28;20273;-51
2022/10/22 00:52:50;;;;;;;0.10;0.10;;;13.20;99.90;;;;;;5089463;28;20199;-52
2022/10/22 00:55:18;;;;;;;0.00;0.00;;;13.20;99.90;;;;;;5082811;28;20219;-53
2022/10/22 00:57:46;;;;;;;0.00;0.00;;;13.20;99.90;;;;;;5083406;28;20220;-52
2022/10/22 01:00:16;;;;;;;0.13;0.00;;;13.20;99.90;;;;;;5087141;28;20200;-52
2022/10/22 01:02:43;;;;;;;1.10;0.00;;;13.10;99.90;;;;;;5087366;28;20253;-53
2022/10/22 01:05:10;;;;;;;0.07;0.07;;;13.10;99.90;;;;;;5079940;28;20250;-52
2022/10/22 01:07:42;;;;;;;0.57;0.00;;;13.10;99.90;;;;;;5071816;28;20225;-53
2022/10/22 01:10:25;;;;;;;0.00;0.00;;;13.10;99.90;;;;;;5081755;28;20198;-53
2022/10/22 01:13:01;;;;;;;0.00;0.00;;;13.10;99.90;;;;;;5090006;28;20657;-52
2022/10/22 01:15:37;;;;;;;0.33;0.10;;;13.10;99.90;;;;;;5080376;28;20222;-53
2022/10/22 01:18:08;;;;;;;0.00;0.00;;;13.00;99.90;;;;;;5082084;28;20666;-53
2022/10/22 01:21:06;;;;;;;0.00;0.00;;;13.00;99.90;;;;;;5082808;28;20634;-53
2022/10/22 01:24:24;;;;;;;0.33;0.00;;;13.00;99.90;;;;;;5035127;28;20252;-53
2022/10/22 01:27:09;;;;;;;0.10;0.10;;;13.00;99.90;;;;;;4997874;28;20788;-53
2022/10/22 01:29:42;;;;;;;1.70;0.10;;;13.00;99.90;;;;;;5006624;28;20197;-53
2022/10/22 01:32:14;;;;;;;0.57;0.10;;;12.90;99.90;;;;;;5053755;28;20597;-53
2022/10/22 01:34:44;;;;;;;3.70;0.10;;;12.90;99.90;;;;;;5080596;28;20231;-53
2022/10/22 01:37:13;;;;;;;0.20;0.10;;;12.90;99.90;;;;;;5086476;28;20222;-54
2022/10/22 01:39:44;;;;;;;0.83;0.43;;;12.90;99.90;;;;;;5082464;28;20192;-53
2022/10/22 01:42:12;;;;;;;0.20;0.00;;;12.90;99.90;;;;;;5087476;28;20246;-52
2022/10/22 01:44:41;;;;;;;0.00;0.00;;;13.00;99.90;;;;;;5074584;28;20222;-53
2022/10/22 01:47:16;;;;;;;0.93;0.00;;;12.90;99.90;;;;;;5086249;28;20296;-53
2022/10/22 01:50:09;;;;;;;0.10;0.00;;;12.90;99.90;;;;;;5085591;28;20613;-52
2022/10/22 01:52:56;;;;;;;3.50;0.10;;;12.90;99.90;;;;;;5090636;28;20250;-53
2022/10/22 01:55:29;;;;;;;0.20;0.00;;;12.90;99.90;;;;;;5071223;28;20281;-54
2022/10/22 01:58:11;;;;;;;0.10;0.10;;;12.90;99.90;;;;;;5089225;28;20211;-50
2022/10/22 02:00:43;;;;;;;0.20;0.20;;;12.80;99.90;;;;;;5080023;28;20206;-50
2022/10/22 02:03:15;;;;;;;0.00;0.00;;;12.80;99.90;;;;;;5078129;28;20199;-50
2022/10/22 02:05:49;;;;;;;1.33;0.70;;;12.80;99.90;;;;;;5078220;28;20216;-50
2022/10/22 02:08:19;;;;;;;10.33;5.40;;;12.80;99.90;;;;;;5083852;28;20212;-50
2022/10/22 02:10:48;;;;;;;1.83;1.47;;;12.70;99.90;;;;;;5081828;28;20205;-50
2022/10/22 02:13:20;;;;;;;0.77;0.50;;;12.70;99.90;;;;;;5089292;28;20208;-50
2022/10/22 02:15:51;;;;;;;0.33;0.07;;;12.70;99.90;;;;;;5082878;28;20280;-50
2022/10/22 02:18:20;;;;;;;1.17;0.20;;;12.70;99.90;;;;;;5085236;28;20200;-51
2022/10/22 02:20:47;;;;;;;0.10;0.10;;;12.80;99.90;;;;;;5085152;28;20200;-50
2022/10/22 02:23:15;;;;;;;0.00;0.00;;;12.80;99.90;;;;;;5080276;28;20250;-51
2022/10/22 02:25:46;;;;;;;0.37;0.10;;;12.80;99.90;;;;;;5075186;28;20892;-50
2022/10/22 02:28:17;;;;;;;0.40;0.10;;;12.80;99.90;;;;;;5081532;28;20551;-50
2022/10/22 02:30:52;;;;;;;0.23;0.17;;;12.80;99.90;;;;;;5074359;28;20678;-50
2022/10/22 02:33:24;;;;;;;0.17;0.10;;;12.70;99.90;;;;;;5074192;28;20204;-50
2022/10/22 02:35:52;;;;;;;0.40;0.40;;;12.70;99.90;;;;;;5079697;28;20225;-49
2022/10/22 02:38:20;;;;;;;0.57;0.17;;;12.80;99.90;;;;;;5082084;28;20199;-50
2022/10/22 02:40:47;;;;;;;2.00;0.53;;;12.70;99.90;;;;;;5089018;28;20250;-50
2022/10/22 02:43:14;;;;;;;0.60;0.10;;;12.70;99.90;;;;;;5083281;28;20204;-50
2022/10/22 02:45:41;;;;;;;0.00;0.00;;;12.70;99.90;;;;;;5074116;28;20562;-50
2022/10/22 02:48:09;;;;;;;0.30;0.00;;;12.70;99.90;;;;;;5074686;28;20205;-50
2022/10/22 02:50:36;;;;;;;0.77;0.20;;;12.70;99.90;;;;;;5084290;28;20732;-51
2022/10/22 02:53:03;;;;;;;0.10;0.10;;;12.60;99.90;;;;;;5089705;28;20196;-49
2022/10/22 02:55:30;;;;;;;0.40;0.20;;;12.60;99.90;;;;;;5089062;28;20301;-49
2022/10/22 02:57:57;;;;;;;0.20;0.20;;;12.60;99.90;;;;;;5085817;28;20262;-50
2022/10/22 03:00:24;;;;;;;0.30;0.17;;;12.60;99.90;;;;;;5093914;28;20208;-50
2022/10/22 03:02:51;;;;;;;0.30;0.10;;;12.60;99.90;;;;;;5084451;28;20200;-51
2022/10/22 03:05:20;;;;;;;0.20;0.10;;;12.60;99.90;;;;;;5091514;28;20200;-50
2022/10/22 03:07:47;;;;;;;0.83;0.20;;;12.50;99.90;;;;;;5084385;28;20228;-51
2022/10/22 03:10:14;;;;;;;0.30;0.20;;;12.50;99.90;;;;;;5073991;28;20212;-50
2022/10/22 03:12:41;;;;;;;1.80;0.10;;;12.50;99.90;;;;;;5073863;28;20204;-50
2022/10/22 03:15:08;;;;;;;0.93;0.10;;;12.50;99.90;;;;;;5079438;28;20216;-50
2022/10/22 03:17:35;;;;;;;0.00;0.00;;;12.50;99.90;;;;;;5082668;28;20693;-52
2022/10/22 03:20:02;;;;;;;3.07;0.30;;;12.60;99.90;;;;;;5084920;28;20682;-49
2022/10/22 03:22:32;;;;;;;0.20;0.20;;;12.60;99.90;;;;;;5078181;28;20197;-51
2022/10/22 03:25:03;;;;;;;0.57;0.07;;;12.70;99.90;;;;;;5073452;28;20557;-51
2022/10/22 03:27:30;;;;;;;0.30;0.10;;;12.70;99.90;;;;;;5073481;28;20221;-50
2022/10/22 03:29:58;;;;;;;0.30;0.30;;;12.70;99.90;;;;;;5078990;28;20659;-51
2022/10/22 03:32:25;;;;;;;0.53;0.53;;;12.70;99.90;;;;;;5082118;28;20201;-51
2022/10/22 03:34:52;;;;;;;0.20;0.20;;;12.70;99.90;;;;;;5089019;28;20200;-50
2022/10/22 03:37:20;;;;;;;0.30;0.30;;;12.60;99.90;;;;;;5084847;28;20758;-49
2022/10/22 03:39:48;;;;;;;0.47;0.47;;;12.60;99.90;;;;;;5093571;28;20632;-50
2022/10/22 03:42:16;;;;;;;0.50;0.50;;;12.70;99.90;;;;;;5089287;28;20250;-50
2022/10/22 03:44:43;;;;;;;0.60;0.60;;;12.60;99.90;;;;;;5091196;28;20196;-50
2022/10/22 03:47:10;;;;;;;0.47;0.40;;;12.60;99.90;;;;;;5079924;28;20225;-49
2022/10/22 03:49:37;;;;;;;0.30;0.30;;;12.60;99.90;;;;;;5089233;28;20207;-50
2022/10/22 03:52:08;;;;;;;0.40;0.40;;;12.60;99.90;;;;;;5081001;28;20197;-50
2022/10/22 03:54:36;;;;;;;0.43;0.30;;;12.60;99.90;;;;;;5085466;28;20260;-49
2022/10/22 03:57:05;;;;;;;0.83;0.40;;;12.60;99.90;;;;;;5085836;28;20223;-50
2022/10/22 03:59:35;;;;;;;0.30;0.30;;;12.60;99.90;;;;;;5081093;28;20743;-50
2022/10/22 04:02:03;;;;;;;0.50;0.50;;;12.50;99.90;;;;;;5072736;28;20700;-50
2022/10/22 04:04:30;;;;;;;0.60;0.60;;;12.60;99.90;;;;;;5083934;28;20200;-51
2022/10/22 04:06:57;;;;;;;0.93;0.43;;;12.70;99.90;;;;;;5090485;28;20272;-50
2022/10/22 04:09:24;;;;;;;0.40;0.37;;;12.60;99.90;;;;;;5084034;28;20743;-49
2022/10/22 04:11:51;;;;;;;0.20;0.20;;;12.60;99.90;;;;;;5077866;28;20207;-49
2022/10/22 04:14:19;;;;;;;0.20;0.20;;;12.60;99.90;;;;;;5078645;28;20252;-51
2022/10/22 04:16:46;;;;;;;1.40;0.47;;;12.50;99.90;;;;;;5089179;28;20224;-51
2022/10/22 04:19:13;;;;;;;2.50;0.20;;;12.60;99.90;;;;;;5076986;28;20253;-50
2022/10/22 04:21:40;;;;;;;0.20;0.20;;;12.60;99.90;;;;;;5082531;28;20204;-51
2022/10/22 04:24:07;;;;;;;0.20;0.20;;;12.60;99.90;;;;;;5086412;28;20269;-50
2022/10/22 04:26:34;;;;;;;0.87;0.20;;;12.60;99.90;;;;;;5083179;28;20373;-51
2022/10/22 04:29:01;;;;;;;0.10;0.10;;;12.60;99.90;;;;;;5086805;28;20199;-50
2022/10/22 04:31:30;;;;;;;2.83;0.13;;;12.70;99.90;;;;;;5084252;28;20204;-51
2022/10/22 04:33:59;;;;;;;0.13;0.10;;;12.70;99.90;;;;;;5082759;28;20203;-50
2022/10/22 04:36:28;;;;;;;2.23;0.40;;;12.80;99.90;;;;;;5085115;28;20224;-51
2022/10/22 04:38:56;;;;;;;0.63;0.30;;;12.70;99.90;;;;;;5075928;28;20285;-51
2022/10/22 04:41:25;;;;;;;0.13;0.10;;;12.70;99.90;;;;;;5077754;28;20605;-51
2022/10/22 04:43:54;;;;;;;0.20;0.20;;;12.80;99.90;;;;;;5077285;28;20249;-51
2022/10/22 04:46:21;;;;;;;0.20;0.20;;;12.70;99.90;;;;;;5080489;28;20223;-51
2022/10/22 04:48:54;;;;;;;0.73;0.20;;;12.70;99.90;;;;;;5082613;28;20691;-50
2022/10/22 04:51:22;;;;;;;0.43;0.20;;;12.70;99.90;;;;;;5085752;28;20443;-50
2022/10/22 04:53:52;;;;;;;0.50;0.40;;;12.60;99.90;;;;;;5090554;28;20195;-51
2022/10/22 04:56:21;;;;;;;0.20;0.20;;;12.60;99.90;;;;;;5085845;28;20237;-50
2022/10/22 04:58:54;;;;;;;2.73;0.40;;;12.60;99.90;;;;;;5081169;28;20210;-52
2022/10/22 05:01:24;;;;;;;0.20;0.20;;;12.60;99.90;;;;;;5078485;28;20207;-50
2022/10/22 05:03:55;;;;;;;1.30;0.20;;;12.50;99.90;;;;;;5077462;28;20201;-49
2022/10/22 05:06:23;;;;;;;0.20;0.20;;;12.50;99.90;;;;;;5079321;28;20216;-50
2022/10/22 05:08:53;;;;;;;0.33;0.33;;;12.60;99.90;;;;;;5079363;28;20240;-50
2022/10/22 05:11:23;;;;;;;1.83;0.67;;;12.60;99.90;;;;;;5085440;28;20246;-49
2022/10/22 05:13:50;;;;;;;0.20;0.20;;;12.50;99.90;;;;;;5085355;28;20246;-50
2022/10/22 05:16:17;;;;;;;0.93;0.30;;;12.50;99.90;;;;;;5078272;28;20231;-49
2022/10/22 05:18:47;;;;;;;0.27;0.27;;;12.50;99.90;;;;;;5075326;28;20257;-50
2022/10/22 05:21:17;;;;;;;0.47;0.27;;;12.50;99.90;;;;;;5072005;28;20190;-49
2022/10/22 05:23:45;;;;;;;0.23;0.23;;;12.50;99.90;;;;;;5088623;28;20662;-49
2022/10/22 05:26:14;;;;;;;0.70;0.67;;;12.60;99.90;;;;;;5077218;28;20222;-49
2022/10/22 05:28:42;;;;;;;0.33;0.27;;;12.50;99.90;;;;;;5083758;28;20202;-50
2022/10/22 05:31:11;;;;;;;0.40;0.20;;;12.50;99.90;;;;;;5078151;28;20609;-50
2022/10/22 05:33:39;;;;;;;0.10;0.10;;;12.60;99.90;;;;;;5073262;28;20211;-50
2022/10/22 05:36:08;;;;;;;1.13;0.30;;;12.50;99.90;;;;;;5081218;28;20271;-50
2022/10/22 05:38:36;;;;;;;0.80;0.40;;;12.60;99.90;;;;;;5070945;28;20665;-50
2022/10/22 05:41:06;;;;;;;0.97;0.20;;;12.60;99.90;;;;;;5080949;28;20207;-49
2022/10/22 05:43:33;;;;;;;0.10;0.10;;;12.60;99.90;;;;;;5075605;28;20197;-50
2022/10/22 05:46:04;;;;;;;0.27;0.27;;;12.60;99.90;;;;;;5078880;28;20221;-52
2022/10/22 05:48:32;;;;;;;0.13;0.13;;;12.60;99.90;;;;;;5083072;28;20201;-50
2022/10/22 05:51:03;;;;;;;1.40;0.30;;;12.60;99.90;;;;;;5070685;28;20207;-50
2022/10/22 05:53:31;;;;;;;2.83;0.30;;;12.60;99.90;;;;;;5076274;28;20276;-50
2022/10/22 05:56:02;;;;;;;0.43;0.43;;;12.70;99.90;;;;;;5081014;28;20220;-49
2022/10/22 05:58:29;;;;;;;0.40;0.33;;;12.70;99.90;;;;;;5081729;28;20193;-51
2022/10/22 06:01:02;;;;;;;0.90;0.73;;;12.80;99.90;;;;;;5081286;28;20196;-50
2022/10/22 06:03:30;;;;;;;0.80;0.43;;;12.80;99.90;;;;;;5093116;28;20195;-50
2022/10/22 06:05:59;;;;;;;0.40;0.40;;;12.90;99.90;;;;;;5089757;28;20234;-50
2022/10/22 06:08:26;;;;;;;0.53;0.53;;;13.00;99.90;;;;;;5074176;28;20191;-49
2022/10/22 06:10:53;;;;;;;0.47;0.40;;;13.00;99.90;;;;;;5086038;28;20200;-49
2022/10/22 06:13:22;;;;;;;2.33;0.43;;;13.10;99.90;;;;;;5087131;28;20201;-49
2022/10/22 06:15:51;;;;;;;3.33;0.57;;;13.10;99.90;;;;;;5087381;28;20226;-49
2022/10/22 06:18:19;;;;;;;0.30;0.30;;;13.20;99.90;;;;;;5091828;28;20291;-50
2022/10/22 06:20:46;;;;;;;0.93;0.40;;;13.20;99.90;;;;;;5082531;28;20257;-50
2022/10/22 06:23:14;;;;;;;2.57;0.43;;;13.20;99.90;;;;;;5085009;28;20210;-50
2022/10/22 06:25:42;;;;;;;0.47;0.47;;;13.20;99.90;;;;;;5084369;28;20224;-49
2022/10/22 06:28:09;;;;;;;0.20;0.20;;;13.20;99.90;;;;;;5081319;28;20189;-52
2022/10/22 06:30:39;;;;;;;0.27;0.27;;;13.20;99.90;;;;;;5075810;28;20270;-48
2022/10/22 06:33:06;;;;;;;1.17;0.50;;;13.20;99.90;;;;;;5073445;28;20253;-48
2022/10/22 06:35:33;;;;;;;0.63;0.30;;;13.20;99.90;;;;;;5076335;28;20201;-48
2022/10/22 06:38:00;;;;;;;0.33;0.33;;;13.20;99.90;;;;;;5080369;28;20308;-48
2022/10/22 06:40:27;;;;;;;0.60;0.30;;;13.20;99.90;;;;;;5080796;28;20204;-47
2022/10/22 06:42:54;;;;;;;1.30;0.10;;;13.20;99.90;;;;;;5081171;28;20693;-48
2022/10/22 06:45:21;;;;;;;0.93;0.30;;;13.20;99.90;;;;;;5079394;28;20716;-49
2022/10/22 06:47:49;;;;;;;0.50;0.33;;;13.30;99.90;;;;;;5087165;28;20208;-50
2022/10/22 06:50:17;;;;;;;0.30;0.30;;;13.30;99.90;;;;;;5087118;28;20216;-49
2022/10/22 06:52:44;;;;;;;0.70;0.27;;;13.20;99.90;;;;;;5084911;28;20199;-51
2022/10/22 06:55:11;;;;;;;0.30;0.20;;;13.30;99.90;;;;;;5084530;28;20242;-49
2022/10/22 06:57:38;;;;;;;0.20;0.20;;;13.40;99.90;;;;;;5080105;28;20279;-49
2022/10/22 07:00:07;;;;;;;1.40;0.13;;;13.40;99.90;;;;;;5085970;28;20269;-49
2022/10/22 07:02:34;;;;;;;1.13;0.30;;;13.50;99.90;;;;;;5089704;28;20203;-52
2022/10/22 07:05:04;;;;;;;0.20;0.20;;;13.50;99.90;;;;;;5086430;28;20196;-51
2022/10/22 07:07:31;;;;;;;0.23;0.23;;;13.50;99.90;;;;;;5080365;28;20265;-51
2022/10/22 07:09:58;;;;;;;1.40;0.20;;;13.60;99.90;;;;;;5080680;28;20243;-52
2022/10/22 07:12:26;;;;;;;0.97;0.30;;;13.60;99.90;;;;;;5088348;28;20250;-49
2022/10/22 07:14:53;;;;;;;0.27;0.27;;;13.60;99.90;;;;;;5081164;28;20235;-48
2022/10/22 07:17:19;;;;;;;0.97;0.37;;;13.60;99.90;;;;;;5085464;28;20231;-48
2022/10/22 07:19:46;;;;;;;0.73;0.67;;;13.70;99.90;;;;;;5083026;28;20195;-50
2022/10/22 07:22:15;;;;;;;0.40;0.33;;;13.80;99.90;;;;;;5080224;28;20265;-49
2022/10/22 07:24:42;;;;;;;0.43;0.43;;;13.80;99.90;;;;;;5092006;28;20205;-49
2022/10/22 07:27:09;;;;;;;0.80;0.60;;;13.90;99.90;;;;;;5091812;28;20279;-50
2022/10/22 07:29:36;;;;;;;0.43;0.30;;;13.90;99.90;;;;;;5076678;28;20257;-54
2022/10/22 07:32:03;;;;;;;0.93;0.30;;;13.90;99.90;;;;;;5079638;28;20192;-50
2022/10/22 07:34:30;;;;;;;0.60;0.30;;;14.00;99.90;;;;;;5083623;28;20192;-49
2022/10/22 07:36:57;;;;;;;0.73;0.60;;;13.90;99.90;;;;;;5083773;28;20231;-50
2022/10/22 07:39:25;;;;;;;1.60;0.43;;;14.00;99.90;;;;;;5092750;28;20201;-49
2022/10/22 07:41:52;;;;;;;0.10;0.10;;;14.00;99.90;;;;;;5081296;28;21851;-48
2022/10/22 07:44:19;;;;;;;1.37;0.10;;;14.00;99.90;;;;;;5085857;28;20251;-49
2022/10/22 07:46:46;;;;;;;0.40;0.40;;;13.90;99.90;;;;;;5083406;28;20232;-48
2022/10/22 07:49:13;;;;;;;0.60;0.20;;;14.00;99.90;;;;;;5084075;28;20253;-50
2022/10/22 07:51:40;;;;;;;0.10;0.10;;;14.00;99.90;;;;;;5082708;28;20254;-49
2022/10/22 07:54:07;;;;;;;2.33;0.20;;;14.00;99.90;;;;;;5081856;28;20262;-49
2022/10/22 07:56:35;;;;;;;0.33;0.20;;;14.00;99.90;;;;;;5085447;28;20305;-49
2022/10/22 07:59:02;;;;;;;0.30;0.30;;;14.00;99.90;;;;;;5077452;28;20257;-48
2022/10/22 08:01:29;;;;;;;1.47;0.20;;;14.00;99.90;;;;;;5082183;28;20744;-49
2022/10/22 08:03:57;;;;;;;1.70;0.47;;;14.10;99.90;;;;;;5082714;28;20204;-49
2022/10/22 08:06:24;;;;;;;0.20;0.20;;;14.10;99.90;;;;;;5092177;28;20702;-49
2022/10/22 08:08:51;;;;;;;0.20;0.13;;;14.10;99.90;;;;;;5092731;28;20249;-49
2022/10/22 08:11:18;;;;;;;0.97;0.23;;;14.10;99.90;;;;;;5092368;28;20710;-49
2022/10/22 08:13:50;;;;;;;2.80;0.50;;;14.10;99.90;;;;;;5091865;28;20204;-48
2022/10/22 08:16:17;;;;;;;0.40;0.20;;;14.20;99.90;;;;;;5092466;28;20223;-49
2022/10/22 08:18:44;;;;;;;0.40;0.40;;;14.30;99.90;;;;;;5091656;28;20452;-49
2022/10/22 08:21:12;;;;;;;0.37;0.37;;;14.30;99.90;;;;;;5091714;28;20196;-49
2022/10/22 08:23:39;;;;;;;1.17;0.20;;;14.40;99.90;;;;;;5092115;28;20208;-48
2022/10/22 08:26:06;;;;;;;0.13;0.13;;;14.50;99.90;;;;;;5092513;28;20224;-50
2022/10/22 08:28:35;;;;;;;0.30;0.20;;;14.60;99.90;;;;;;5082650;28;20547;-49
2022/10/22 08:31:04;;;;;;;0.23;0.23;;;14.60;99.90;;;;;;5072133;28;20201;-50
2022/10/22 08:33:31;;;;;;;0.10;0.10;;;14.70;99.90;;;;;;5071878;28;20258;-49
2022/10/22 08:35:58;;;;;;;1.37;0.30;;;14.70;99.90;;;;;;5072003;28;20217;-48
2022/10/22 08:38:25;;;;;;;2.37;0.20;;;14.70;99.90;;;;;;5076106;28;20228;-50
2022/10/22 08:40:57;;;;;;;0.20;0.20;;;14.80;99.90;;;;;;5089185;28;20732;-48
2022/10/22 08:43:49;;;;;;;0.40;0.40;;;14.90;99.90;;;;;;5086145;28;20246;-49
2022/10/22 08:46:52;;;;;;;0.30;0.30;;;15.00;99.90;;;;;;5085017;28;20227;-49
2022/10/22 08:49:22;;;;;;;0.10;0.10;;;15.00;99.90;;;;;;5082064;28;20269;-49
2022/10/22 08:51:50;;;;;;;0.10;0.10;;;15.00;99.90;;;;;;5080852;28;20420;-49
2022/10/22 08:54:25;;;;;;;0.20;0.17;;;15.10;99.90;;;;;;5086766;28;20201;-50
2022/10/22 08:57:05;;;;;;;1.00;0.20;;;15.20;99.90;;;;;;5089187;28;20659;-50
2022/10/22 08:59:37;;;;;;;0.83;0.20;;;15.30;99.90;;;;;;5087490;28;20204;-49
2022/10/22 09:02:22;;;;;;;0.40;0.30;;;15.30;99.90;;;;;;5090498;28;20200;-50
2022/10/22 09:04:58;;;;;;;0.77;0.20;;;15.50;99.90;;;;;;5082096;28;20197;-49
2022/10/22 09:07:25;;;;;;;0.50;0.30;;;15.80;99.90;;;;;;5083628;28;20220;-49
2022/10/22 09:09:54;;;;;;;0.20;0.20;;;15.90;99.90;;;;;;5079823;28;20204;-49
2022/10/22 09:12:24;;;;;;;0.80;0.30;;;15.90;99.90;;;;;;5071606;28;20582;-51
2022/10/22 09:14:51;;;;;;;2.97;0.30;;;15.80;99.90;;;;;;5090713;28;20666;-50
2022/10/22 09:17:25;;;;;;;0.57;0.23;;;15.80;99.90;;;;;;5090076;28;20227;-49
2022/10/22 09:20:02;;;;;;;0.20;0.20;;;16.00;99.90;;;;;;5081084;28;20196;-49
2022/10/22 09:22:36;;;;;;;0.30;0.30;;;16.70;99.90;;;;;;5071700;28;20204;-49
2022/10/22 09:25:16;;;;;;;1.00;0.73;;;17.50;99.90;;;;;;5071350;28;20196;-51
2022/10/22 09:27:43;;;;;;;0.20;0.20;;;18.30;99.90;;;;;;5071724;28;20221;-49
2022/10/22 09:30:16;;;;;;;0.20;0.20;;;19.10;99.90;;;;;;5076979;28;20204;-49
2022/10/22 09:32:44;;;;;;;0.27;0.27;;;19.50;99.90;;;;;;5081851;28;20193;-50
2022/10/22 09:35:12;;;;;;;1.20;0.20;;;20.00;99.90;;;;;;5083242;28;20253;-50
2022/10/22 09:37:48;;;;;;;0.63;0.20;;;19.60;99.90;;;;;;5085807;28;20216;-49
2022/10/22 09:40:16;;;;;;;0.83;0.47;;;19.50;99.90;;;;;;5093712;28;20204;-50
2022/10/22 09:42:44;;;;;;;0.77;0.20;;;19.70;99.90;;;;;;5093843;28;20196;-50
2022/10/22 09:45:19;;;;;;;0.97;0.80;;;19.80;99.90;;;;;;5093609;28;20192;-49
2022/10/22 09:47:48;;;;;;;0.33;0.33;;;19.90;99.90;;;;;;5081896;28;20238;-52
2022/10/22 09:50:22;;;;;;;2.60;0.30;;;19.90;99.90;;;;;;5083814;28;20204;-50
2022/10/22 09:53:00;;;;;;;0.20;0.20;;;19.90;99.90;;;;;;5095723;28;20204;-50
2022/10/22 09:55:28;;;;;;;1.20;0.40;;;20.10;99.90;;;;;;5095304;28;20673;-50
2022/10/22 09:57:56;;;;;;;0.20;0.20;;;20.30;99.90;;;;;;5086510;28;20322;-50
2022/10/22 10:00:24;;;;;;;0.87;0.30;;;20.00;99.90;;;;;;5087646;28;20251;-50
2022/10/22 10:02:57;;;;;;;0.70;0.70;;;19.90;99.90;;;;;;5093799;28;20300;-49
2022/10/22 10:05:29;;;;;;;0.40;0.20;;;19.70;99.90;;;;;;5095023;28;20306;-49
2022/10/22 10:07:56;;;;;;;0.30;0.20;;;19.70;99.90;;;;;;5095302;28;20582;-50
2022/10/22 10:10:33;;;;;;;0.20;0.20;;;19.50;99.90;;;;;;5086610;28;20215;-49
2022/10/22 10:13:11;;;;;;;0.20;0.20;;;19.70;99.90;;;;;;5075622;28;21005;-50
2022/10/22 10:15:44;;;;;;;0.67;0.20;;;20.00;99.90;;;;;;5074681;28;20200;-51
2022/10/22 10:18:23;;;;;;;1.77;0.30;;;20.00;99.90;;;;;;5074507;28;20224;-51
2022/10/22 10:20:55;;;;;;;0.30;0.30;;;20.10;99.90;;;;;;5092094;28;20594;-50
2022/10/22 10:23:28;;;;;;;0.20;0.20;;;20.10;99.90;;;;;;5087760;28;20200;-49
2022/10/22 10:26:01;;;;;;;0.40;0.40;;;20.20;99.90;;;;;;5093796;28;20306;-49
2022/10/22 10:28:56;;;;;;;2.00;0.40;;;20.00;99.90;;;;;;5090553;28;20197;-49
2022/10/22 10:31:34;;;;;;;0.43;0.43;;;19.60;99.90;;;;;;5076615;28;20690;-50
2022/10/22 10:34:14;;;;;;;1.33;0.30;;;19.50;99.90;;;;;;5083087;28;20203;-51
2022/10/22 10:36:49;;;;;;;2.43;0.30;;;19.40;99.90;;;;;;5093027;28;20212;-50
2022/10/22 10:39:23;;;;;;;0.33;0.30;;;19.30;99.90;;;;;;5086379;28;20713;-50
2022/10/22 10:41:56;;;;;;;1.47;1.00;;;19.10;99.90;;;;;;5090757;28;20227;-51
2022/10/22 10:44:58;;;;;;;0.30;0.30;;;19.10;99.90;;;;;;5084609;28;20219;-49
2022/10/22 10:47:47;;;;;;;0.37;0.37;;;19.10;99.90;;;;;;5091623;28;20728;-51
2022/10/22 10:50:27;;;;;;;0.20;0.20;;;19.00;99.90;;;;;;5078248;28;20213;-48
2022/10/22 10:53:02;;;;;;;0.57;0.30;;;19.20;99.90;;;;;;5075443;28;20698;-49
2022/10/22 10:55:32;;;;;;;2.93;0.40;;;19.30;99.90;;;;;;5091013;28;20241;-49
2022/10/22 10:58:10;;;;;;;1.07;0.20;;;19.20;99.90;;;;;;5083619;28;20231;-49
2022/10/22 11:00:45;;;;;;;0.20;0.20;;;19.20;99.90;;;;;;5078062;28;20236;-50
2022/10/22 11:03:48;;;;;;;1.17;0.10;;;19.30;99.90;;;;;;5077974;28;20254;-49
2022/10/22 11:06:19;;;;;;;0.27;0.27;;;19.40;99.90;;;;;;5086505;28;20220;-49
2022/10/22 11:08:53;;;;;;;0.47;0.30;;;19.40;99.90;;;;;;5085228;28;20193;-48
2022/10/22 11:11:26;;;;;;;0.20;0.20;;;19.40;99.90;;;;;;5089766;28;20206;-49
2022/10/22 11:13:58;;;;;;;1.37;0.20;;;19.40;99.90;;;;;;5074198;28;20205;-49
2022/10/22 11:16:32;;;;;;;0.20;0.20;;;19.50;99.90;;;;;;5073771;28;20217;-48
2022/10/22 11:19:05;;;;;;;1.40;0.33;;;19.40;99.90;;;;;;5089763;28;20685;-49
2022/10/22 11:21:39;;;;;;;0.20;0.10;;;19.50;99.90;;;;;;5086216;28;20204;-49
2022/10/22 11:24:13;;;;;;;1.80;0.17;;;19.40;99.90;;;;;;5089008;28;20222;-47
2022/10/22 11:26:45;;;;;;;1.17;0.30;;;19.40;99.90;;;;;;5085470;28;20281;-48
2022/10/22 11:29:17;;;;;;;1.70;0.20;;;19.40;99.90;;;;;;5086801;28;20193;-48
2022/10/22 11:31:45;;;;;;;1.40;0.20;;;19.50;99.90;;;;;;5077221;28;20193;-48
2022/10/22 11:34:19;;;;;;;0.40;0.40;;;19.50;99.90;;;;;;5072659;28;20251;-48
2022/10/22 11:36:49;;;;;;;0.10;0.10;;;19.40;99.90;;;;;;5072654;28;20209;-48
2022/10/22 11:39:37;;;;;;;0.10;0.10;;;19.40;99.90;;;;;;5072501;28;20217;-49
2022/10/22 11:42:09;;;;;;;0.00;0.00;;;19.30;99.90;;;;;;5087986;28;20193;-49
2022/10/22 11:44:57;;;;;;;3.30;0.20;;;19.40;99.90;;;;;;5072167;28;20215;-49
2022/10/22 11:47:26;;;;;;;0.20;0.17;;;19.50;99.90;;;;;;5089461;28;20281;-50
2022/10/22 11:49:59;;;;;;;1.27;0.10;;;19.50;99.90;;;;;;5072207;28;20247;-50
2022/10/22 11:52:41;;;;;;;0.10;0.00;;;19.60;99.90;;;;;;5072085;28;20239;-50
2022/10/22 11:55:31;;;;;;;0.10;0.10;;;19.50;99.90;;;;;;5088540;28;20196;-50
2022/10/22 11:58:00;;;;;;;0.10;0.10;;;19.60;99.90;;;;;;5091085;28;20222;-50
2022/10/22 12:00:40;;;;;;;0.40;0.10;;;19.50;99.90;;;;;;5090948;28;20196;-51
2022/10/22 12:03:17;;;;;;;0.00;0.00;;;19.40;99.90;;;;;;5090419;28;20204;-50
2022/10/22 12:05:44;;;;;;;0.10;0.10;;;19.50;99.90;;;;;;5090728;28;20325;-50
2022/10/22 12:08:25;;;;;;;0.17;0.17;;;19.50;99.90;;;;;;5090782;28;20196;-49
2022/10/22 12:11:01;;;;;;;0.00;0.00;;;19.60;99.90;;;;;;5090801;28;20196;-50
2022/10/22 12:13:31;;;;;;;0.10;0.10;;;19.50;99.90;;;;;;5090453;28;20196;-50
2022/10/22 12:16:01;;;;;;;0.77;0.10;;;19.40;99.90;;;;;;5090804;28;20220;-49
2022/10/22 12:18:35;;;;;;;0.10;0.10;;;19.40;99.90;;;;;;5090720;28;20204;-50
2022/10/22 12:21:02;;;;;;;1.03;0.17;;;19.40;99.90;;;;;;5090641;28;20480;-50
2022/10/22 12:23:34;;;;;;;0.23;0.10;;;19.40;99.90;;;;;;5083395;28;20204;-49
2022/10/22 12:26:03;;;;;;;1.03;0.10;;;19.40;99.90;;;;;;5081929;28;20279;-50
2022/10/22 12:28:37;;;;;;;0.40;0.17;;;19.40;99.90;;;;;;5087540;28;20666;-50
2022/10/22 12:31:04;;;;;;;0.20;0.20;;;19.40;99.90;;;;;;5082674;28;20200;-51
2022/10/22 12:33:31;;;;;;;0.00;0.00;;;19.40;99.90;;;;;;5083598;28;20198;-49
2022/10/22 12:36:02;;;;;;;2.43;0.00;;;19.40;99.90;;;;;;5080430;28;20304;-51
2022/10/22 12:38:31;;;;;;;3.30;0.20;;;19.40;99.90;;;;;;5075887;28;20577;-50
2022/10/22 12:40:58;;;;;;;0.00;0.00;;;19.50;99.90;;;;;;5082461;28;20334;-49
2022/10/22 12:43:27;;;;;;;0.67;0.00;;;19.60;99.90;;;;;;5083097;28;20196;-50
2022/10/22 12:45:57;;;;;;;0.20;0.10;;;19.50;99.90;;;;;;5080406;28;20309;-50
2022/10/22 12:48:27;;;;;;;0.10;0.10;;;19.50;99.90;;;;;;5085466;28;20276;-51
2022/10/22 12:50:56;;;;;;;0.10;0.10;;;19.50;99.90;;;;;;5079078;28;20259;-50
2022/10/22 12:53:25;;;;;;;0.10;0.10;;;19.50;99.90;;;;;;5079615;28;20209;-50
2022/10/22 12:55:55;;;;;;;0.30;0.10;;;19.40;99.90;;;;;;5080993;28;20261;-51
2022/10/22 12:58:26;;;;;;;0.50;0.10;;;19.40;99.90;;;;;;5078205;28;20220;-51
2022/10/22 13:00:57;;;;;;;0.20;0.20;;;19.50;99.90;;;;;;5082913;28;20674;-49
2022/10/22 13:03:30;;;;;;;0.20;0.20;;;19.50;99.90;;;;;;5091018;28;20235;-49
2022/10/22 13:06:11;;;;;;;0.20;0.20;;;19.50;99.90;;;;;;5078738;28;20224;-50